No particular awareness of the weather is required.    There are no Weather-warnings


Meteo18 Weather Cam more information Meteo18 Weather Cam


Thunder radar more information blitzortung!


Rain radar more information rain snow radar


Visit our other weather sites:

Template documentation
and downloads

And another site



Weather Underground History page Text

Daily Summary for April 29, 2016 Units:  Metric    English   Both
« Previous Day
Next Day »
Daily Weekly Monthly Yearly Custom
  High: Low: Average:
Temperature: 15.2 °C 3.4 °C 8.8 °C
Dew Point: 6.2 °C 2.2 °C 4 °C
Humidity: 93 % 48 % 74 %
Wind Speed: 14.5 km/h 0.0 km/h 2 km/h
Wind Gust: 19.3 km/h - -
Wind:- - SW
Pressure: 1018.2 hPa 1015.8 hPa -
Precipitation: 0.0 mm    
Historical Graphs
 
 
Tabular Data for April 29, 2016
Time Temperature Dew Point Pressure Wind Wind Speed Wind Gust Humidity Rainfall Rate (Hourly)
00:02 5.4 °C 3.9 °C 1017.2 hPa Calm     90 % 0.0 mm
00:07 5.4 °C 3.7 °C 1017.5 hPa Calm     89 % 0.0 mm
00:12 5.3 °C 3.6 °C 1017.2 hPa Calm     89 % 0.0 mm
00:17 5.3 °C 3.8 °C 1017.2 hPa Calm     90 % 0.0 mm
00:22 5.3 °C 3.8 °C 1017.2 hPa Calm     90 % 0.0 mm
00:27 5.3 °C 3.8 °C 1017.2 hPa Calm     90 % 0.0 mm
00:32 5.2 °C 3.7 °C 1017.5 hPa Calm     90 % 0.0 mm
00:37 5.2 °C 3.7 °C 1017.5 hPa Calm     90 % 0.0 mm
00:42 5.1 °C 3.6 °C 1017.2 hPa Calm     90 % 0.0 mm
00:52 5.1 °C 3.8 °C 1017.2 hPa Calm   1.6 km/h 91 % 0.0 mm
00:57 5.1 °C 3.8 °C 1017.2 hPa Calm   1.6 km/h 91 % 0.0 mm
01:02 5.1 °C 3.8 °C 1017.5 hPa Calm   1.6 km/h 91 % 0.0 mm
01:07 4.9 °C 3.4 °C 1017.5 hPa Calm     90 % 0.0 mm
01:12 4.8 °C 3.3 °C 1017.5 hPa Calm     90 % 0.0 mm
01:17 4.7 °C 3.2 °C 1017.5 hPa Calm     90 % 0.0 mm
01:22 4.6 °C 3.1 °C 1017.5 hPa Calm     90 % 0.0 mm
01:27 4.7 °C 3.2 °C 1017.5 hPa Calm     90 % 0.0 mm
01:32 4.7 °C 3.2 °C 1017.5 hPa Calm     90 % 0.0 mm
01:37 4.6 °C 3.1 °C 1017.5 hPa Calm     90 % 0.0 mm
01:42 4.6 °C 3.1 °C 1017.5 hPa Calm     90 % 0.0 mm
01:47 4.5 °C 3.0 °C 1017.5 hPa Calm   1.6 km/h 90 % 0.0 mm
01:52 4.5 °C 3.0 °C 1017.5 hPa Calm   1.6 km/h 90 % 0.0 mm
01:57 4.6 °C 3.1 °C 1017.5 hPa Calm     90 % 0.0 mm
02:02 4.6 °C 2.9 °C 1017.2 hPa Calm     89 % 0.0 mm
02:07 4.6 °C 2.9 °C 1017.5 hPa Calm     89 % 0.0 mm
02:12 4.7 °C 3.0 °C 1017.5 hPa Calm     89 % 0.0 mm
02:17 4.7 °C 3.0 °C 1017.2 hPa Calm   1.6 km/h 89 % 0.0 mm
02:22 4.7 °C 3.0 °C 1017.2 hPa Calm   1.6 km/h 89 % 0.0 mm
02:27 4.7 °C 3.0 °C 1017.2 hPa Calm   1.6 km/h 89 % 0.0 mm
02:32 4.6 °C 2.9 °C 1017.2 hPa Calm   1.6 km/h 89 % 0.0 mm
02:37 4.7 °C 3.0 °C 1017.2 hPa Calm     89 % 0.0 mm
02:42 4.7 °C 3.0 °C 1017.2 hPa Calm     89 % 0.0 mm
02:47 4.6 °C 2.9 °C 1017.2 hPa Calm     89 % 0.0 mm
02:52 4.7 °C 3.0 °C 1017.2 hPa Calm     89 % 0.0 mm
02:57 4.7 °C 3.0 °C 1017.2 hPa Calm     89 % 0.0 mm
03:02 4.7 °C 3.2 °C 1017.2 hPa Calm     90 % 0.0 mm
03:07 4.7 °C 3.2 °C 1017.2 hPa Calm   1.6 km/h 90 % 0.0 mm
03:12 4.7 °C 3.2 °C 1017.2 hPa Calm   1.6 km/h 90 % 0.0 mm
03:17 4.7 °C 3.2 °C 1017.2 hPa Calm     90 % 0.0 mm
03:22 4.7 °C 3.2 °C 1017.2 hPa Calm     90 % 0.0 mm
03:27 4.7 °C 3.0 °C 1017.2 hPa Calm     89 % 0.0 mm
03:32 4.8 °C 3.1 °C 1017.2 hPa Calm     89 % 0.0 mm
03:37 4.8 °C 3.1 °C 1017.2 hPa Calm     89 % 0.0 mm
03:42 4.8 °C 3.1 °C 1017.2 hPa Calm     89 % 0.0 mm
03:47 4.8 °C 3.0 °C 1017.2 hPa Calm     88 % 0.0 mm
03:52 4.8 °C 3.1 °C 1017.2 hPa Calm     89 % 0.0 mm
03:57 4.8 °C 3.1 °C 1017.2 hPa Calm     89 % 0.0 mm
04:02 4.8 °C 3.1 °C 1017.2 hPa Calm     89 % 0.0 mm
04:07 4.8 °C 3.0 °C 1017.2 hPa Calm     88 % 0.0 mm
04:12 4.8 °C 3.0 °C 1017.2 hPa Calm     88 % 0.0 mm
04:17 4.8 °C 3.1 °C 1017.2 hPa Calm   1.6 km/h 89 % 0.0 mm
04:22 4.8 °C 3.1 °C 1017.2 hPa Calm   1.6 km/h 89 % 0.0 mm
04:27 4.8 °C 3.0 °C 1017.2 hPa Calm   1.6 km/h 88 % 0.0 mm
04:32 4.8 °C 3.0 °C 1017.2 hPa Calm   1.6 km/h 88 % 0.0 mm
04:37 4.8 °C 3.0 °C 1017.2 hPa Calm     88 % 0.0 mm
04:42 4.8 °C 3.1 °C 1017.2 hPa Calm     89 % 0.0 mm
04:52 4.7 °C 2.9 °C 1017.2 hPa Calm     88 % 0.0 mm
05:02 4.7 °C 3.0 °C 1017.2 hPa Calm     89 % 0.0 mm
05:07 4.7 °C 3.0 °C 1017.2 hPa Calm     89 % 0.0 mm
05:12 4.7 °C 3.0 °C 1017.2 hPa Calm     89 % 0.0 mm
05:22 4.7 °C 3.0 °C 1017.2 hPa Calm     89 % 0.0 mm
05:32 4.7 °C 3.0 °C 1017.2 hPa Calm   1.6 km/h 89 % 0.0 mm
05:42 4.7 °C 2.9 °C 1017.2 hPa Calm   1.6 km/h 88 % 0.0 mm
05:52 4.6 °C 2.6 °C 1017.2 hPa Calm   1.6 km/h 87 % 0.0 mm
06:02 4.6 °C 2.6 °C 1017.2 hPa Calm   1.6 km/h 87 % 0.0 mm
06:12 4.6 °C 2.8 °C 1017.5 hPa Calm   1.6 km/h 88 % 0.0 mm
06:22 4.4 °C 2.7 °C 1017.5 hPa Calm     89 % 0.0 mm
06:32 4.4 °C 2.7 °C 1017.2 hPa Calm   1.6 km/h 89 % 0.0 mm
06:42 4.3 °C 2.6 °C 1017.2 hPa Calm     89 % 0.0 mm
06:52 4.2 °C 2.7 °C 1017.5 hPa Calm   1.6 km/h 90 % 0.0 mm
07:02 4.1 °C 2.6 °C 1017.5 hPa Calm   1.6 km/h 90 % 0.0 mm
07:12 4.1 °C 2.8 °C 1017.5 hPa Calm   1.6 km/h 91 % 0.0 mm
07:22 4.1 °C 2.8 °C 1017.5 hPa Calm   1.6 km/h 91 % 0.0 mm
07:32 3.7 °C 2.4 °C 1017.5 hPa Calm   1.6 km/h 91 % 0.0 mm
07:42 3.5 °C 2.3 °C 1017.5 hPa Calm     92 % 0.0 mm
07:52 3.4 °C 2.2 °C 1017.8 hPa Calm     92 % 0.0 mm
08:02 3.6 °C 2.6 °C 1017.8 hPa Calm   3.2 km/h 93 % 0.0 mm
08:12 4.0 °C 3.0 °C 1017.8 hPa Calm   1.6 km/h 93 % 0.0 mm
08:17 4.2 °C 3.0 °C 1017.8 hPa Calm   1.6 km/h 92 % 0.0 mm
08:22 4.5 °C 3.2 °C 1017.8 hPa Calm   1.6 km/h 91 % 0.0 mm
08:27 4.7 °C 3.2 °C 1017.8 hPa Calm   1.6 km/h 90 % 0.0 mm
08:32 4.9 °C 3.4 °C 1017.8 hPa Calm   1.6 km/h 90 % 0.0 mm
08:37 5.2 °C 3.5 °C 1017.8 hPa Calm   4.8 km/h 89 % 0.0 mm
08:42 5.6 °C 3.8 °C 1017.8 hPa WSW 3.2 km/h 4.8 km/h 88 % 0.0 mm
08:52 6.1 °C 3.9 °C 1017.8 hPa Calm   4.8 km/h 86 % 0.0 mm
08:57 6.3 °C 4.1 °C 1017.8 hPa WSW 3.2 km/h 4.8 km/h 86 % 0.0 mm
09:02 6.6 °C 4.3 °C 1017.8 hPa WSW 1.6 km/h 4.8 km/h 85 % 0.0 mm
09:12 7.1 °C 4.7 °C 1017.8 hPa Calm   6.4 km/h 85 % 0.0 mm
09:22 7.7 °C 5.0 °C 1018.2 hPa Calm   4.8 km/h 83 % 0.0 mm
09:32 8.3 °C 5.1 °C 1018.2 hPa WSW 1.6 km/h 3.2 km/h 80 % 0.0 mm
09:42 8.9 °C 5.5 °C 1018.2 hPa WSW 4.8 km/h 6.4 km/h 79 % 0.0 mm
09:52 9.6 °C 5.8 °C 1018.2 hPa WSW 3.2 km/h 8.0 km/h 77 % 0.0 mm
10:02 10.1 °C 6.1 °C 1018.2 hPa SW 3.2 km/h 6.4 km/h 76 % 0.0 mm
10:07 10.2 °C 5.8 °C 1018.2 hPa West 1.6 km/h 9.7 km/h 74 % 0.0 mm
10:12 10.4 °C 5.2 °C 1018.2 hPa SW 1.6 km/h 9.7 km/h 70 % 0.0 mm
10:17 10.6 °C 6.0 °C 1018.2 hPa West 8.0 km/h 9.7 km/h 73 % 0.0 mm
10:22 10.9 °C 5.4 °C 1018.2 hPa WSW 3.2 km/h 9.7 km/h 69 % 0.0 mm
10:32 11.1 °C 6.2 °C 1017.8 hPa SW 4.8 km/h 12.9 km/h 72 % 0.0 mm
10:37 11.3 °C 5.2 °C 1017.8 hPa WSW 4.8 km/h 12.9 km/h 66 % 0.0 mm
10:42 11.3 °C 5.0 °C 1017.8 hPa SW 4.8 km/h 12.9 km/h 65 % 0.0 mm
10:52 11.6 °C 5.0 °C 1017.8 hPa West 3.2 km/h 12.9 km/h 64 % 0.0 mm
10:57 11.6 °C 4.6 °C 1017.8 hPa SW 6.4 km/h 9.7 km/h 62 % 0.0 mm
11:02 11.7 °C 4.7 °C 1017.8 hPa SW 9.7 km/h 9.7 km/h 62 % 0.0 mm
11:07 11.8 °C 4.8 °C 1017.8 hPa SW 3.2 km/h 12.9 km/h 62 % 0.0 mm
11:12 12.1 °C 5.0 °C 1017.8 hPa WSW 14.5 km/h 14.5 km/h 62 % 0.0 mm
11:17 12.1 °C 4.8 °C 1017.8 hPa WSW 8.0 km/h 14.5 km/h 61 % 0.0 mm
11:22 12.3 °C 5.0 °C 1017.8 hPa SW 6.4 km/h 14.5 km/h 61 % 0.0 mm
11:27 12.5 °C 5.4 °C 1017.8 hPa WSW 4.8 km/h 14.5 km/h 62 % 0.0 mm
11:32 12.4 °C 4.6 °C 1017.8 hPa WSW 4.8 km/h 14.5 km/h 59 % 0.0 mm
11:37 12.7 °C 4.9 °C 1017.8 hPa SW 6.4 km/h 11.3 km/h 59 % 0.0 mm
11:42 13.1 °C 5.3 °C 1017.8 hPa SW 3.2 km/h 11.3 km/h 59 % 0.0 mm
11:47 13.5 °C 5.4 °C 1017.8 hPa SW 8.0 km/h 11.3 km/h 58 % 0.0 mm
11:52 13.7 °C 5.8 °C 1017.8 hPa WSW 8.0 km/h 11.3 km/h 59 % 0.0 mm
11:57 13.7 °C 6.1 °C 1017.8 hPa SSW 6.4 km/h 14.5 km/h 60 % 0.0 mm
12:02 13.4 °C 4.0 °C 1017.8 hPa SW 3.2 km/h 14.5 km/h 53 % 0.0 mm
12:14 11.9 °C 3.6 °C 1017.8 hPa SW 6.4 km/h 12.9 km/h 57 % 0.0 mm
12:22 11.5 °C 4.0 °C 1017.8 hPa Calm   11.3 km/h 60 % 0.0 mm
12:32 11.4 °C 3.7 °C 1017.8 hPa SW 6.4 km/h 9.7 km/h 59 % 0.0 mm
12:37 11.6 °C 4.1 °C 1017.8 hPa Calm   9.7 km/h 60 % 0.0 mm
12:42 12.7 °C 4.9 °C 1017.8 hPa WSW 3.2 km/h 9.7 km/h 59 % 0.0 mm
12:52 13.7 °C 5.8 °C 1017.8 hPa West 6.4 km/h 12.9 km/h 59 % 0.0 mm
12:57 13.7 °C 4.8 °C 1017.8 hPa SW 6.4 km/h 12.9 km/h 55 % 0.0 mm
13:02 13.1 °C 4.3 °C 1017.8 hPa South 6.4 km/h 12.9 km/h 55 % 0.0 mm
13:07 13.1 °C 3.2 °C 1017.8 hPa SW 6.4 km/h 12.9 km/h 51 % 0.0 mm
13:12 13.5 °C 3.3 °C 1017.5 hPa West 8.0 km/h 12.9 km/h 50 % 0.0 mm
13:17 13.4 °C 4.3 °C 1017.5 hPa SW 8.0 km/h 12.9 km/h 54 % 0.0 mm
13:22 13.0 °C 4.2 °C 1017.5 hPa WSW 6.4 km/h 12.9 km/h 55 % 0.0 mm
13:27 12.6 °C 4.3 °C 1017.5 hPa SW 3.2 km/h 14.5 km/h 57 % 0.0 mm
13:32 13.4 °C 4.0 °C 1017.5 hPa WSW 6.4 km/h 14.5 km/h 53 % 0.0 mm
13:37 14.1 °C 4.7 °C 1017.5 hPa Calm   11.3 km/h 53 % 0.0 mm
13:42 14.9 °C 5.7 °C 1017.5 hPa SW 6.4 km/h 11.3 km/h 54 % 0.0 mm
13:57 14.8 °C 4.2 °C 1017.5 hPa SSW 8.0 km/h 19.3 km/h 49 % 0.0 mm
14:02 14.1 °C 3.5 °C 1017.5 hPa West 4.8 km/h 19.3 km/h 49 % 0.0 mm
14:12 14.0 °C 4.8 °C 1017.5 hPa SW 8.0 km/h 14.5 km/h 54 % 0.0 mm
14:17 14.4 °C 5.7 °C 1017.5 hPa WSW 4.8 km/h 14.5 km/h 56 % 0.0 mm
14:22 14.7 °C 4.1 °C 1017.2 hPa SW 3.2 km/h 12.9 km/h 49 % 0.0 mm
14:27 14.6 °C 4.3 °C 1017.2 hPa SW 8.0 km/h 12.9 km/h 50 % 0.0 mm
14:32 14.3 °C 3.4 °C 1017.5 hPa SW 3.2 km/h 12.9 km/h 48 % 0.0 mm
14:42 14.0 °C 3.5 °C 1017.2 hPa SW 3.2 km/h 12.9 km/h 49 % 0.0 mm
14:47 13.7 °C 3.7 °C 1017.2 hPa SW 3.2 km/h 14.5 km/h 51 % 0.0 mm
14:52 13.6 °C 3.7 °C 1017.2 hPa WSW 1.6 km/h 14.5 km/h 51 % 0.0 mm
14:57 13.8 °C 4.7 °C 1017.2 hPa SW 6.4 km/h 16.1 km/h 54 % 0.0 mm
15:02 14.1 °C 4.1 °C 1017.2 hPa West 4.8 km/h 16.1 km/h 51 % 0.0 mm
15:07 13.8 °C 4.7 °C 1017.2 hPa SW 6.4 km/h 16.1 km/h 54 % 0.0 mm
15:12 13.8 °C 4.7 °C 1017.2 hPa SW 8.0 km/h 16.1 km/h 54 % 0.0 mm
15:17 13.6 °C 3.7 °C 1017.2 hPa WSW 1.6 km/h 12.9 km/h 51 % 0.0 mm
15:22 13.7 °C 5.1 °C 1017.2 hPa SW 1.6 km/h 12.9 km/h 56 % 0.0 mm
15:27 13.7 °C 5.3 °C 1017.2 hPa WSW 1.6 km/h 11.3 km/h 57 % 0.0 mm
15:32 13.8 °C 3.8 °C 1017.2 hPa WSW 4.8 km/h 11.3 km/h 51 % 0.0 mm
15:37 13.8 °C 4.1 °C 1017.2 hPa Calm   12.9 km/h 52 % 0.0 mm
15:42 13.9 °C 4.7 °C 1017.2 hPa WSW 6.4 km/h 12.9 km/h 54 % 0.0 mm
15:52 14.3 °C 5.1 °C 1016.8 hPa SW 3.2 km/h 9.7 km/h 54 % 0.0 mm
16:02 14.6 °C 4.3 °C 1016.8 hPa WSW 1.6 km/h 9.7 km/h 50 % 0.0 mm
16:07 14.6 °C 4.6 °C 1016.8 hPa WSW 6.4 km/h 11.3 km/h 51 % 0.0 mm
16:12 14.1 °C 4.4 °C 1016.8 hPa SW 3.2 km/h 11.3 km/h 52 % 0.0 mm
16:17 14.2 °C 5.0 °C 1016.8 hPa SW 3.2 km/h 11.3 km/h 54 % 0.0 mm
16:22 14.2 °C 4.2 °C 1016.8 hPa WSW 3.2 km/h 11.3 km/h 51 % 0.0 mm
16:27 14.2 °C 5.0 °C 1016.8 hPa SW 8.0 km/h 11.3 km/h 54 % 0.0 mm
16:32 13.9 °C 4.5 °C 1016.8 hPa SW 3.2 km/h 11.3 km/h 53 % 0.0 mm
16:37 14.1 °C 4.9 °C 1016.8 hPa SW 3.2 km/h 9.7 km/h 54 % 0.0 mm
16:42 14.1 °C 3.8 °C 1016.8 hPa WSW 6.4 km/h 9.7 km/h 50 % 0.0 mm
16:47 13.7 °C 4.3 °C 1016.5 hPa SW 4.8 km/h 9.7 km/h 53 % 0.0 mm
16:52 13.8 °C 4.1 °C 1016.5 hPa SW 4.8 km/h 11.3 km/h 52 % 0.0 mm
16:57 14.3 °C 5.4 °C 1016.5 hPa SW 3.2 km/h 11.3 km/h 55 % 0.0 mm
17:07 15.0 °C 4.7 °C 1016.5 hPa SW 3.2 km/h 8.0 km/h 50 % 0.0 mm
17:12 14.7 °C 5.2 °C 1016.1 hPa SW 3.2 km/h 8.0 km/h 53 % 0.0 mm
17:17 14.6 °C 4.3 °C 1016.1 hPa West 4.8 km/h 11.3 km/h 50 % 0.0 mm
17:22 14.2 °C 4.8 °C 1016.1 hPa WSW 4.8 km/h 11.3 km/h 53 % 0.0 mm
17:27 14.3 °C 4.3 °C 1016.1 hPa WSW 11.3 km/h 11.3 km/h 51 % 0.0 mm
17:32 14.6 °C 5.7 °C 1016.1 hPa SW 3.2 km/h 11.3 km/h 55 % 0.0 mm
17:42 14.5 °C 5.8 °C 1016.1 hPa SSW 3.2 km/h 11.3 km/h 56 % 0.0 mm
17:57 15.2 °C 5.4 °C 1016.1 hPa SW 3.2 km/h 11.3 km/h 52 % 0.0 mm
18:02 14.6 °C 4.3 °C 1016.1 hPa SW 4.8 km/h 11.3 km/h 50 % 0.0 mm
18:12 13.7 °C 4.8 °C 1016.1 hPa SW 4.8 km/h 11.3 km/h 55 % 0.0 mm
18:17 13.4 °C 4.3 °C 1016.1 hPa SW 3.2 km/h 12.9 km/h 54 % 0.0 mm
18:22 13.3 °C 4.2 °C 1016.1 hPa SW 4.8 km/h 12.9 km/h 54 % 0.0 mm
18:32 13.6 °C 4.5 °C 1016.1 hPa WSW 3.2 km/h 12.9 km/h 54 % 0.0 mm
18:42 13.4 °C 4.5 °C 1016.1 hPa SW 4.8 km/h 8.0 km/h 55 % 0.0 mm
18:47 13.1 °C 4.3 °C 1016.1 hPa SW 3.2 km/h 8.0 km/h 55 % 0.0 mm
18:57 13.1 °C 4.3 °C 1016.1 hPa SW 3.2 km/h 9.7 km/h 55 % 0.0 mm
19:02 12.9 °C 4.6 °C 1016.1 hPa WSW 4.8 km/h 9.7 km/h 57 % 0.0 mm
19:07 13.0 °C 4.4 °C 1016.1 hPa WSW 3.2 km/h 9.7 km/h 56 % 0.0 mm
19:12 13.1 °C 4.0 °C 1015.8 hPa SW 4.8 km/h 9.7 km/h 54 % 0.0 mm
19:22 12.8 °C 4.7 °C 1015.8 hPa SW 1.6 km/h 8.0 km/h 58 % 0.0 mm
19:27 12.8 °C 4.0 °C 1015.8 hPa SW 4.8 km/h 9.7 km/h 55 % 0.0 mm
19:32 12.7 °C 4.4 °C 1015.8 hPa Calm   9.7 km/h 57 % 0.0 mm
19:37 12.6 °C 4.6 °C 1015.8 hPa SW 1.6 km/h 9.7 km/h 58 % 0.0 mm
19:42 12.4 °C 4.9 °C 1015.8 hPa Calm   9.7 km/h 60 % 0.0 mm
19:47 12.1 °C 5.0 °C 1015.8 hPa Calm   9.7 km/h 62 % 0.0 mm
19:52 11.7 °C 5.1 °C 1015.8 hPa Calm   3.2 km/h 64 % 0.0 mm
19:57 11.3 °C 5.2 °C 1015.8 hPa Calm   1.6 km/h 66 % 0.0 mm
20:02 11.0 °C 5.5 °C 1015.8 hPa Calm   1.6 km/h 69 % 0.0 mm
20:12 10.7 °C 4.8 °C 1015.8 hPa Calm     67 % 0.0 mm
20:17 10.7 °C 4.8 °C 1015.8 hPa Calm   3.2 km/h 67 % 0.0 mm
20:22 10.6 °C 4.9 °C 1015.8 hPa Calm   3.2 km/h 68 % 0.0 mm
20:27 10.4 °C 5.0 °C 1015.8 hPa Calm     69 % 0.0 mm
20:32 10.2 °C 4.8 °C 1015.8 hPa Calm     69 % 0.0 mm
20:37 10.1 °C 4.9 °C 1015.8 hPa Calm     70 % 0.0 mm
20:42 9.9 °C 4.9 °C 1015.8 hPa Calm     71 % 0.0 mm
20:47 9.5 °C 4.9 °C 1015.8 hPa Calm     73 % 0.0 mm
20:52 9.1 °C 4.9 °C 1015.8 hPa Calm     75 % 0.0 mm
20:57 8.7 °C 4.9 °C 1015.8 hPa Calm     77 % 0.0 mm
21:12 7.6 °C 4.5 °C 1015.8 hPa Calm     81 % 0.0 mm
21:17 7.2 °C 4.3 °C 1015.8 hPa Calm     82 % 0.0 mm
21:22 7.1 °C 4.4 °C 1015.8 hPa Calm     83 % 0.0 mm
21:27 6.8 °C 4.1 °C 1015.8 hPa Calm     83 % 0.0 mm
21:32 6.5 °C 3.8 °C 1016.1 hPa Calm     83 % 0.0 mm
21:37 6.3 °C 4.0 °C 1016.1 hPa Calm     85 % 0.0 mm
21:42 6.1 °C 3.9 °C 1016.1 hPa Calm     86 % 0.0 mm
21:52 5.7 °C 3.7 °C 1016.1 hPa Calm     87 % 0.0 mm
21:57 5.5 °C 3.5 °C 1016.1 hPa Calm     87 % 0.0 mm
22:02 5.3 °C 3.3 °C 1016.1 hPa Calm     87 % 0.0 mm
22:07 5.2 °C 3.4 °C 1016.1 hPa Calm     88 % 0.0 mm
22:12 5.1 °C 3.4 °C 1016.1 hPa Calm     89 % 0.0 mm
22:17 5.2 °C 3.9 °C 1016.1 hPa Calm     91 % 0.0 mm
22:22 5.4 °C 4.0 °C 1016.1 hPa Calm     91 % 0.0 mm
22:27 5.5 °C 4.0 °C 1016.1 hPa Calm     90 % 0.0 mm
22:32 5.5 °C 4.0 °C 1016.1 hPa Calm     90 % 0.0 mm
22:37 5.3 °C 3.6 °C 1016.1 hPa Calm     89 % 0.0 mm
22:42 5.2 °C 3.7 °C 1016.1 hPa Calm     90 % 0.0 mm
22:47 5.2 °C 3.7 °C 1016.1 hPa Calm     90 % 0.0 mm
22:52 5.2 °C 3.9 °C 1016.1 hPa Calm     91 % 0.0 mm
22:57 5.2 °C 3.9 °C 1016.1 hPa Calm     91 % 0.0 mm
23:02 5.2 °C 3.9 °C 1016.1 hPa Calm     91 % 0.0 mm
23:12 5.3 °C 4.0 °C 1016.1 hPa Calm     91 % 0.0 mm
23:17 5.4 °C 4.2 °C 1016.1 hPa Calm     92 % 0.0 mm
23:22 5.5 °C 4.3 °C 1016.1 hPa Calm     92 % 0.0 mm
23:27 5.6 °C 4.4 °C 1016.1 hPa Calm     92 % 0.0 mm
23:32 5.7 °C 4.5 °C 1016.1 hPa Calm     92 % 0.0 mm
23:37 5.8 °C 4.6 °C 1016.1 hPa Calm     92 % 0.0 mm
23:42 5.8 °C 4.4 °C 1016.1 hPa Calm     91 % 0.0 mm
23:47 5.9 °C 4.4 °C 1016.1 hPa Calm     90 % 0.0 mm
23:52 6.0 °C 4.5 °C 1016.1 hPa Calm     90 % 0.0 mm
23:57 6.1 °C 4.4 °C 1016.1 hPa Calm     89 % 0.0 mm
Meteo18
Compliments of Weather Underground - 4 mb

Script developed by  Jim McMurry - jmcmurry@mwt.net Adapted for the template by  Wim van der Kuil - Leuven-Template.eu

You find our weather info also at:

European Weather Network

Weather Underground

Equipment we use:

Weather-station
Davis Vue

Weather-program
Meteohub

Weather-server
Raspberry PI 2 B+

Provider
1 and 1

Davis Vue

Meteohub

Raspberry PI 2 B+

1 and 1